createdAt,value
2022-10-07T00:04:10.963Z,7
2022-10-07T00:09:22.837Z,7
2022-10-07T00:14:34.583Z,7
2022-10-07T00:19:46.497Z,8
2022-10-07T00:24:58.565Z,7
2022-10-07T00:30:10.602Z,7
2022-10-07T00:35:22.292Z,8
2022-10-07T00:40:34.579Z,8
2022-10-07T00:45:46.639Z,8
2022-10-07T00:50:58.564Z,8
2022-10-07T00:56:10.568Z,8
2022-10-07T01:01:22.742Z,8
2022-10-07T01:06:34.484Z,8
2022-10-07T01:11:46.468Z,8
2022-10-07T01:16:58.550Z,8
2022-10-07T01:22:10.553Z,8
2022-10-07T01:27:22.657Z,8
2022-10-07T01:32:34.304Z,8
2022-10-07T01:37:48.297Z,8
2022-10-07T01:42:59.639Z,8
2022-10-07T01:48:11.375Z,8
2022-10-07T01:58:35.208Z,8
2022-10-07T02:03:47.869Z,8
2022-10-07T02:08:59.664Z,8
2022-10-07T02:14:11.848Z,7
2022-10-07T02:19:23.584Z,7
2022-10-07T02:24:35.345Z,7
2022-10-07T02:29:47.169Z,7
2022-10-07T02:34:59.165Z,7
2022-10-07T02:40:13.317Z,7
2022-10-07T02:45:27.701Z,7
2022-10-07T02:50:38.586Z,7
2022-10-07T02:55:50.485Z,7
2022-10-07T03:01:02.533Z,7
2022-10-07T03:06:14.246Z,7
2022-10-07T03:11:26.005Z,7
2022-10-07T03:16:38.125Z,7
2022-10-07T03:21:49.725Z,7
2022-10-07T03:27:01.726Z,7
2022-10-07T03:32:13.974Z,7
2022-10-07T03:37:25.775Z,7
2022-10-07T03:42:37.505Z,7
2022-10-07T03:47:50.413Z,7
2022-10-07T03:53:01.848Z,7
2022-10-07T03:58:13.718Z,7
2022-10-07T04:03:26.038Z,7
2022-10-07T04:08:37.978Z,8
2022-10-07T04:13:49.948Z,8
2022-10-07T04:19:02.591Z,8
2022-10-07T04:24:14.507Z,8
2022-10-07T04:29:26.449Z,8
2022-10-07T04:34:38.436Z,8
2022-10-07T04:40:02.048Z,8
2022-10-07T04:45:13.587Z,8
2022-10-07T04:50:25.463Z,9
2022-10-07T04:55:37.285Z,8
2022-10-07T05:00:49.539Z,7
2022-10-07T05:06:06.771Z,7
2022-10-07T05:11:20.940Z,7
2022-10-07T05:16:33.499Z,7
2022-10-07T05:21:45.528Z,7
2022-10-07T05:26:57.287Z,7
2022-10-07T05:32:09.472Z,7
2022-10-07T05:37:21.419Z,7
2022-10-07T05:42:33.418Z,7
2022-10-07T05:47:47.063Z,7
2022-10-07T05:52:59.452Z,7
2022-10-07T05:58:11.348Z,7
2022-10-07T06:03:23.600Z,7
2022-10-07T06:08:35.641Z,7
2022-10-07T06:13:47.470Z,7
2022-10-07T06:18:59.589Z,7
2022-10-07T06:24:11.544Z,7
2022-10-07T06:29:23.359Z,7
2022-10-07T06:34:35.339Z,7
2022-10-07T06:39:47.502Z,8
2022-10-07T06:44:59.778Z,7
2022-10-07T06:50:11.937Z,6
2022-10-07T06:55:23.831Z,6
2022-10-07T07:00:35.787Z,6
2022-10-07T07:05:55.249Z,6
2022-10-07T07:11:05.653Z,6
2022-10-07T07:16:17.853Z,6
2022-10-07T07:21:29.868Z,6
2022-10-07T07:26:42.088Z,6
2022-10-07T07:31:54.178Z,6
2022-10-07T07:37:06.448Z,6
2022-10-07T07:42:18.831Z,5
2022-10-07T07:47:31.121Z,5
2022-10-07T07:52:43.285Z,5
2022-10-07T07:57:55.723Z,5
2022-10-07T08:03:07.870Z,5
2022-10-07T08:13:34.715Z,5
2022-10-07T08:18:47.199Z,5
2022-10-07T08:23:59.660Z,5
2022-10-07T08:29:12.172Z,5
2022-10-07T08:34:24.271Z,5
2022-10-07T08:39:36.743Z,5
2022-10-07T08:44:49.504Z,5
2022-10-07T08:50:01.740Z,5
2022-10-07T08:55:14.169Z,5
2022-10-07T09:00:26.546Z,5
2022-10-07T09:05:39.141Z,6
2022-10-07T09:10:51.682Z,6
2022-10-07T09:16:04.576Z,7
2022-10-07T09:21:16.880Z,8
2022-10-07T09:26:29.374Z,8
2022-10-07T09:31:42.002Z,9
2022-10-07T09:36:54.331Z,10
2022-10-07T09:42:06.765Z,11
2022-10-07T09:47:19.334Z,12
2022-10-07T09:52:31.832Z,14
2022-10-07T09:57:45.719Z,13
2022-10-07T10:03:07.018Z,15
2022-10-07T10:08:17.621Z,16
2022-10-07T10:13:30.352Z,16
2022-10-07T10:18:42.869Z,18
2022-10-07T10:23:55.414Z,18
2022-10-07T10:29:07.921Z,19
2022-10-07T10:34:20.532Z,20
2022-10-07T10:39:32.920Z,19
2022-10-07T10:44:45.452Z,22
2022-10-07T10:49:58.123Z,20
2022-10-07T10:55:10.731Z,22
2022-10-07T11:00:23.080Z,25
2022-10-07T11:05:35.794Z,26
2022-10-07T11:10:48.960Z,29
2022-10-07T11:16:04.481Z,42
2022-10-07T11:21:19.543Z,79
2022-10-07T11:26:35.831Z,73
2022-10-07T11:31:49.092Z,69
2022-10-07T11:42:13.737Z,67
2022-10-07T11:47:26.877Z,63
2022-10-07T11:52:40.008Z,64
2022-10-07T12:08:14.371Z,62
2022-10-07T12:18:38.407Z,60
2022-10-07T12:23:51.276Z,58
2022-10-07T12:39:25.919Z,59
2022-10-07T12:44:38.535Z,58
2022-10-07T12:49:51.617Z,58
2022-10-07T12:55:04.931Z,55
2022-10-07T13:05:28.409Z,55
2022-10-07T13:15:51.641Z,54
2022-10-07T13:21:04.137Z,55
2022-10-07T13:41:48.011Z,59
2022-10-07T13:52:09.691Z,62
2022-10-07T13:57:22.532Z,60
2022-10-07T14:43:57.806Z,74
2022-10-07T14:49:10.371Z,74
2022-10-07T14:59:35.036Z,72
2022-10-07T15:04:48.231Z,74
2022-10-07T15:10:00.410Z,77
2022-10-07T15:20:23.184Z,73
2022-10-07T15:25:35.751Z,74
2022-10-07T15:30:48.581Z,73
2022-10-07T15:36:01.006Z,76
2022-10-07T15:46:23.636Z,76
2022-10-07T15:51:36.211Z,78
2022-10-07T15:56:48.445Z,76
2022-10-07T16:07:11.000Z,80
2022-10-07T16:12:23.159Z,80
2022-10-07T16:53:45.471Z,87
2022-10-07T17:04:08.074Z,79
2022-10-07T17:09:20.468Z,76
2022-10-07T17:14:33.133Z,74
2022-10-07T17:19:45.144Z,71
2022-10-07T17:24:57.288Z,68
2022-10-07T17:30:09.415Z,66
2022-10-07T17:35:21.694Z,62
2022-10-07T17:40:33.931Z,60
2022-10-07T17:45:45.854Z,57
2022-10-07T17:50:57.998Z,55
2022-10-07T17:56:10.239Z,54
2022-10-07T18:01:22.655Z,53
2022-10-07T18:06:34.793Z,51
2022-10-07T18:11:46.980Z,48
2022-10-07T18:16:59.072Z,46
2022-10-07T18:22:11.142Z,37
2022-10-07T18:27:23.407Z,39
2022-10-07T18:32:35.332Z,39
2022-10-07T18:37:49.187Z,37
2022-10-07T18:43:01.008Z,35
2022-10-07T18:48:12.943Z,34
2022-10-07T18:53:25.184Z,32
2022-10-07T18:58:37.299Z,30
2022-10-07T19:03:49.352Z,28
2022-10-07T19:09:01.292Z,28
2022-10-07T19:14:13.416Z,26
2022-10-07T19:19:25.544Z,25
2022-10-07T19:24:37.682Z,24
2022-10-07T19:29:49.887Z,23
2022-10-07T19:35:01.885Z,23
2022-10-07T19:40:14.165Z,18
2022-10-07T19:45:26.803Z,19
2022-10-07T19:50:38.998Z,21
2022-10-07T19:55:51.112Z,21
2022-10-07T20:01:03.800Z,20
2022-10-07T20:06:16.143Z,19
2022-10-07T20:11:28.308Z,17
2022-10-07T20:16:40.990Z,16
2022-10-07T20:21:53.180Z,14
2022-10-07T20:27:05.327Z,12
2022-10-07T20:32:18.072Z,11
2022-10-07T20:37:30.078Z,11
2022-10-07T20:42:48.788Z,10
2022-10-07T20:48:05.975Z,10
2022-10-07T20:53:17.867Z,9
2022-10-07T20:58:29.909Z,9
2022-10-07T21:03:42.100Z,9
2022-10-07T21:08:54.270Z,9
2022-10-07T21:14:06.317Z,9
2022-10-07T21:19:18.440Z,9
2022-10-07T21:24:30.677Z,9
2022-10-07T21:29:49.317Z,8
2022-10-07T21:35:00.912Z,8
2022-10-07T21:40:15.648Z,8
2022-10-07T21:45:27.077Z,8
2022-10-07T21:50:39.640Z,8
2022-10-07T21:55:51.636Z,8
2022-10-07T22:01:04.044Z,8
2022-10-07T22:06:16.243Z,8
2022-10-07T22:11:28.296Z,8
2022-10-07T22:16:40.285Z,7
2022-10-07T22:21:52.480Z,7
2022-10-07T22:27:04.575Z,7
2022-10-07T22:32:16.745Z,7
2022-10-07T22:37:28.889Z,7
2022-10-07T22:42:41.125Z,7
2022-10-07T22:47:53.025Z,7
2022-10-07T22:53:05.228Z,7
2022-10-07T22:58:17.125Z,7
2022-10-07T23:03:29.831Z,7
2022-10-07T23:08:41.589Z,7
2022-10-07T23:13:53.624Z,7
2022-10-07T23:19:05.615Z,7
2022-10-07T23:24:17.729Z,7
2022-10-07T23:29:29.716Z,7
2022-10-07T23:34:41.926Z,6
2022-10-07T23:39:54.272Z,6
2022-10-07T23:45:06.276Z,6
2022-10-07T23:50:18.382Z,6
2022-10-07T23:55:30.725Z,6
